Time;durP1;ratioP1;P1;durP2;ratioP2;P2;SDS_P1;SDS_P2;PMS_P1;PMS_P2;Temp;Humidity;BMP_temperature;BMP_pressure;BME280_temperature;BME280_humidity;BME280_pressure;Samples;Min_cycle;Max_cycle;Signal;HPM_P1;HPM_P2
2021/07/19 00:00:34;;;;;;;12.43;5.03;;;20.50;99.90;;;;;;5032302;28;20090;-63
2021/07/19 00:03:01;;;;;;;9.77;4.90;;;20.50;99.90;;;;;;5040983;28;20059;-62
2021/07/19 00:05:29;;;;;;;8.43;5.13;;;20.60;99.90;;;;;;5040136;28;20497;-65
2021/07/19 00:07:56;;;;;;;10.52;4.97;;;20.60;99.90;;;;;;5036646;28;20130;-67
2021/07/19 00:10:26;;;;;;;8.52;4.72;;;20.60;99.90;;;;;;5031267;28;20043;-70
2021/07/19 00:12:53;;;;;;;15.77;6.07;;;20.70;99.90;;;;;;5033474;28;20211;-70
2021/07/19 00:15:24;;;;;;;9.23;5.90;;;20.70;99.90;;;;;;5030552;28;20199;-68
2021/07/19 00:17:51;;;;;;;7.82;5.15;;;20.70;99.90;;;;;;5031694;28;20052;-67
2021/07/19 00:20:19;;;;;;;9.35;5.28;;;20.60;99.90;;;;;;5031814;28;20114;-67
2021/07/19 00:22:46;;;;;;;9.10;5.13;;;20.70;99.90;;;;;;5031492;28;20264;-68
2021/07/19 00:25:16;;;;;;;11.20;5.43;;;20.60;99.90;;;;;;5033011;28;20048;-66
2021/07/19 00:27:44;;;;;;;9.48;5.80;;;20.60;99.90;;;;;;5038512;28;20048;-68
2021/07/19 00:30:15;;;;;;;10.77;5.10;;;20.50;99.90;;;;;;5039350;28;20040;-68
2021/07/19 00:32:45;;;;;;;10.15;5.55;;;20.50;99.90;;;;;;5038906;28;21603;-66
2021/07/19 00:35:12;;;;;;;9.52;6.32;;;20.50;99.90;;;;;;5038302;28;20060;-66
2021/07/19 00:37:40;;;;;;;10.13;6.38;;;20.50;99.90;;;;;;5036808;28;20469;-71
2021/07/19 00:40:10;;;;;;;13.05;6.15;;;20.40;99.90;;;;;;5031516;28;20159;-66
2021/07/19 00:42:43;;;;;;;12.02;5.78;;;20.20;99.90;;;;;;5037127;28;21484;-70
2021/07/19 00:45:12;;;;;;;12.18;5.65;;;20.10;99.90;;;;;;5038008;28;20059;-66
2021/07/19 00:47:39;;;;;;;16.20;5.97;;;20.20;99.90;;;;;;5039068;28;20136;-71
2021/07/19 00:50:09;;;;;;;10.32;5.88;;;20.20;99.90;;;;;;5038653;28;20044;-71
2021/07/19 00:52:36;;;;;;;9.88;6.43;;;20.10;99.90;;;;;;5038189;28;20060;-70
2021/07/19 00:55:06;;;;;;;8.38;5.70;;;20.20;99.90;;;;;;5038737;28;20052;-67
2021/07/19 00:57:35;;;;;;;12.65;6.80;;;20.10;99.90;;;;;;5037095;28;20113;-70
2021/07/19 01:00:04;;;;;;;7.88;5.10;;;20.20;99.90;;;;;;5038763;28;20060;-70
2021/07/19 01:02:33;;;;;;;9.27;5.35;;;20.20;99.90;;;;;;5037418;28;20478;-68
2021/07/19 01:05:01;;;;;;;10.07;5.53;;;20.10;99.90;;;;;;5043078;28;20090;-67
2021/07/19 01:07:30;;;;;;;8.07;4.97;;;20.20;99.90;;;;;;5040633;28;20052;-71
2021/07/19 01:09:57;;;;;;;10.27;5.40;;;20.30;99.90;;;;;;5041807;28;20835;-66
2021/07/19 01:12:24;;;;;;;7.90;5.53;;;20.20;99.90;;;;;;5041565;28;20517;-65
2021/07/19 01:14:51;;;;;;;12.38;6.03;;;20.20;99.90;;;;;;5042160;28;20076;-68
2021/07/19 01:17:18;;;;;;;11.65;5.28;;;20.10;99.90;;;;;;5042261;28;20044;-67
2021/07/19 01:19:49;;;;;;;9.60;5.45;;;20.10;99.90;;;;;;5041208;28;20056;-69
2021/07/19 01:22:53;;;;;;;9.60;4.80;;;20.00;99.90;;;;;;5041043;28;20044;-68
2021/07/19 01:25:33;;;;;;;10.88;6.00;;;20.00;99.90;;;;;;5041258;28;20493;-71
2021/07/19 01:28:11;;;;;;;10.60;5.82;;;20.00;99.90;;;;;;5043535;28;20131;-70
2021/07/19 01:30:43;;;;;;;10.32;5.78;;;19.80;99.90;;;;;;5045196;28;20044;-65
2021/07/19 01:33:12;;;;;;;9.48;5.70;;;19.80;99.90;;;;;;5044907;28;20064;-67
2021/07/19 01:35:42;;;;;;;7.18;4.88;;;19.80;99.90;;;;;;5044644;28;20068;-70
2021/07/19 01:38:12;;;;;;;9.57;5.22;;;19.70;99.90;;;;;;5043989;28;20064;-69
2021/07/19 01:40:39;;;;;;;8.52;4.50;;;19.80;99.90;;;;;;5044445;28;20799;-66
2021/07/19 01:43:09;;;;;;;8.75;4.93;;;19.80;99.90;;;;;;5043916;28;20051;-70
2021/07/19 01:45:39;;;;;;;8.80;5.55;;;19.70;99.90;;;;;;5044466;28;20049;-72
2021/07/19 01:48:07;;;;;;;10.80;5.63;;;19.70;99.90;;;;;;5043119;28;20071;-70
2021/07/19 01:50:35;;;;;;;8.75;4.93;;;19.70;99.90;;;;;;5044422;28;20475;-69
2021/07/19 01:53:02;;;;;;;10.32;5.63;;;19.70;99.90;;;;;;5043444;28;20056;-66
2021/07/19 01:55:31;;;;;;;8.00;4.95;;;19.70;99.90;;;;;;5041975;28;20136;-71
2021/07/19 01:57:59;;;;;;;9.82;5.50;;;19.70;99.90;;;;;;5041651;28;20743;-65
2021/07/19 02:00:26;;;;;;;7.88;5.18;;;19.70;99.90;;;;;;5041229;28;20856;-71
2021/07/19 02:02:55;;;;;;;10.82;5.30;;;19.60;99.90;;;;;;5041759;28;20048;-65
2021/07/19 02:05:24;;;;;;;10.68;5.47;;;19.60;99.90;;;;;;5044165;28;20080;-66
2021/07/19 02:07:53;;;;;;;7.70;5.55;;;19.60;99.90;;;;;;5043348;28;20060;-66
2021/07/19 02:10:20;;;;;;;9.32;5.20;;;19.50;99.90;;;;;;5043684;28;20129;-71
2021/07/19 02:12:49;;;;;;;9.55;4.95;;;19.50;99.90;;;;;;5044338;28;20109;-72
2021/07/19 02:15:18;;;;;;;8.77;5.65;;;19.60;99.90;;;;;;5041179;28;20062;-66
2021/07/19 02:17:48;;;;;;;8.90;5.35;;;19.40;99.90;;;;;;5041181;28;20053;-66
2021/07/19 02:20:18;;;;;;;9.20;4.95;;;19.40;99.90;;;;;;5040178;28;20452;-66
2021/07/19 02:22:47;;;;;;;10.20;5.60;;;19.40;99.90;;;;;;5041162;28;20452;-65
2021/07/19 02:25:16;;;;;;;9.30;5.15;;;19.40;99.90;;;;;;5042223;28;20436;-66
2021/07/19 02:27:47;;;;;;;9.52;5.13;;;19.40;99.90;;;;;;5040637;28;20063;-65
2021/07/19 02:30:18;;;;;;;10.38;5.60;;;19.40;99.90;;;;;;5042029;28;20044;-66
2021/07/19 02:32:50;;;;;;;10.80;6.13;;;19.40;99.90;;;;;;5042283;28;20485;-67
2021/07/19 02:35:19;;;;;;;9.35;6.00;;;19.30;99.90;;;;;;5040684;28;20130;-71
2021/07/19 02:37:49;;;;;;;9.88;5.57;;;19.20;99.90;;;;;;5040512;28;20106;-70
2021/07/19 02:40:19;;;;;;;9.07;5.60;;;19.20;99.90;;;;;;5040494;28;20098;-68
2021/07/19 02:42:50;;;;;;;8.32;5.50;;;19.20;99.90;;;;;;5040787;28;20049;-67
2021/07/19 02:45:20;;;;;;;8.57;5.03;;;19.20;99.90;;;;;;5040106;28;20127;-66
2021/07/19 02:47:50;;;;;;;9.38;5.32;;;19.10;99.90;;;;;;5039581;28;20080;-71
2021/07/19 02:50:25;;;;;;;10.55;5.70;;;19.20;99.90;;;;;;5040142;28;20051;-65
2021/07/19 02:52:53;;;;;;;11.43;5.63;;;19.20;99.90;;;;;;5041465;28;20432;-68
2021/07/19 02:55:21;;;;;;;12.05;5.55;;;19.30;99.90;;;;;;5039960;28;20068;-66
2021/07/19 02:57:48;;;;;;;12.43;5.53;;;19.20;99.90;;;;;;5040465;28;20088;-66
2021/07/19 03:00:17;;;;;;;11.05;5.93;;;19.10;99.90;;;;;;5041024;28;20044;-65
2021/07/19 03:02:49;;;;;;;12.57;5.57;;;19.20;99.90;;;;;;5041547;28;20149;-68
2021/07/19 03:05:20;;;;;;;8.68;5.30;;;19.30;99.90;;;;;;5041459;28;20084;-66
2021/07/19 03:07:52;;;;;;;10.65;6.10;;;19.40;99.90;;;;;;5040114;28;20049;-66
2021/07/19 03:10:22;;;;;;;14.07;5.30;;;19.40;99.90;;;;;;5039801;28;20088;-66
2021/07/19 03:12:51;;;;;;;11.25;6.10;;;19.40;99.90;;;;;;5040265;28;20127;-67
2021/07/19 03:15:18;;;;;;;10.98;6.07;;;19.40;99.90;;;;;;5040291;28;20045;-66
2021/07/19 03:17:50;;;;;;;11.27;5.88;;;19.30;99.90;;;;;;5039751;28;20080;-66
2021/07/19 03:20:17;;;;;;;10.82;6.35;;;19.30;99.90;;;;;;5040161;28;20132;-68
2021/07/19 03:22:48;;;;;;;10.23;5.90;;;19.30;99.90;;;;;;5040976;28;20163;-68
2021/07/19 03:25:17;;;;;;;10.15;6.18;;;19.30;99.90;;;;;;5040506;28;20111;-71
2021/07/19 03:27:44;;;;;;;14.85;5.72;;;19.30;99.90;;;;;;5040222;28;20142;-72
2021/07/19 03:30:13;;;;;;;9.88;6.30;;;19.30;99.90;;;;;;5040106;28;20239;-68
2021/07/19 03:32:41;;;;;;;10.02;6.00;;;19.20;99.90;;;;;;5040993;28;20040;-71
2021/07/19 03:35:09;;;;;;;11.63;6.43;;;19.20;99.90;;;;;;5040388;28;20080;-66
2021/07/19 03:37:38;;;;;;;13.10;7.03;;;19.20;99.90;;;;;;5038905;28;21247;-71
2021/07/19 03:40:08;;;;;;;11.45;6.20;;;19.20;99.90;;;;;;5040135;28;20062;-71
2021/07/19 03:42:35;;;;;;;9.98;6.50;;;19.10;99.90;;;;;;5039831;28;20128;-68
2021/07/19 03:45:04;;;;;;;17.45;6.35;;;19.20;99.90;;;;;;5040781;28;20056;-66
2021/07/19 03:47:31;;;;;;;10.48;6.13;;;19.10;99.90;;;;;;5039473;28;20052;-65
2021/07/19 03:49:59;;;;;;;11.73;5.95;;;19.00;99.90;;;;;;5040050;28;20072;-74
2021/07/19 03:52:27;;;;;;;11.45;6.47;;;19.00;99.90;;;;;;5040182;28;20574;-66
2021/07/19 03:54:54;;;;;;;9.52;5.53;;;19.00;99.90;;;;;;5040342;28;20101;-71
2021/07/19 03:57:23;;;;;;;11.65;5.93;;;19.10;99.90;;;;;;5039697;28;20084;-66
2021/07/19 03:59:50;;;;;;;9.30;6.03;;;19.10;99.90;;;;;;5040010;28;21233;-65
2021/07/19 04:02:19;;;;;;;11.90;6.07;;;19.10;99.90;;;;;;5039726;28;20044;-69
2021/07/19 04:04:51;;;;;;;12.20;6.05;;;19.10;99.90;;;;;;5040611;28;20048;-65
2021/07/19 04:07:19;;;;;;;9.48;6.10;;;19.10;99.90;;;;;;5040217;28;20063;-65
2021/07/19 04:09:47;;;;;;;12.25;6.55;;;19.10;99.90;;;;;;5039910;28;20102;-66
2021/07/19 04:12:16;;;;;;;11.80;6.20;;;19.10;99.90;;;;;;5040393;28;20052;-67
2021/07/19 04:14:46;;;;;;;12.48;6.53;;;19.10;99.90;;;;;;5040827;28;20125;-66
2021/07/19 04:17:13;;;;;;;14.38;8.13;;;19.10;99.90;;;;;;5040570;28;20060;-69
2021/07/19 04:19:43;;;;;;;11.25;6.43;;;19.10;99.90;;;;;;5040692;28;20127;-72
2021/07/19 04:22:11;;;;;;;12.00;6.85;;;19.00;99.90;;;;;;5040308;28;20067;-68
2021/07/19 04:24:38;;;;;;;14.30;6.90;;;19.10;99.90;;;;;;5041728;28;20076;-69
2021/07/19 04:27:06;;;;;;;13.10;6.82;;;19.10;99.90;;;;;;5041611;28;20135;-66
2021/07/19 04:29:33;;;;;;;11.02;6.63;;;19.00;99.90;;;;;;5040013;28;20045;-70
2021/07/19 04:32:02;;;;;;;12.07;6.15;;;19.00;99.90;;;;;;5041174;28;20048;-66
2021/07/19 04:34:31;;;;;;;16.60;7.57;;;19.10;99.90;;;;;;5041865;28;20776;-70
2021/07/19 04:37:02;;;;;;;11.88;6.38;;;19.20;99.90;;;;;;5042236;28;20117;-66
2021/07/19 04:39:29;;;;;;;13.70;6.43;;;19.20;99.90;;;;;;5040847;28;20675;-70
2021/07/19 04:41:57;;;;;;;10.52;6.18;;;19.20;99.90;;;;;;5042543;28;20048;-69
2021/07/19 04:44:24;;;;;;;11.25;6.70;;;19.20;99.90;;;;;;5040604;28;20140;-68
2021/07/19 04:46:51;;;;;;;13.73;6.85;;;19.30;99.90;;;;;;5043192;28;20483;-66
2021/07/19 04:49:19;;;;;;;12.85;6.45;;;19.30;99.90;;;;;;5042127;28;20686;-70
2021/07/19 04:51:47;;;;;;;14.27;6.57;;;19.30;99.90;;;;;;5043284;28;20056;-70
2021/07/19 04:54:18;;;;;;;13.02;6.82;;;19.40;99.90;;;;;;5040881;28;20106;-70
2021/07/19 04:56:47;;;;;;;12.77;5.75;;;19.40;99.90;;;;;;5038588;28;20048;-70
2021/07/19 04:59:17;;;;;;;13.35;7.07;;;19.50;99.90;;;;;;5039340;28;20183;-72
2021/07/19 05:01:45;;;;;;;11.07;5.95;;;19.50;99.90;;;;;;5038724;28;20130;-67
2021/07/19 05:04:14;;;;;;;10.27;6.55;;;19.50;99.90;;;;;;5037038;28;20052;-66
2021/07/19 05:06:46;;;;;;;12.07;6.15;;;19.40;99.90;;;;;;5038277;28;21138;-67
2021/07/19 05:09:15;;;;;;;11.30;6.50;;;19.40;99.90;;;;;;5036317;28;20056;-68
2021/07/19 05:11:43;;;;;;;11.00;6.60;;;19.50;99.90;;;;;;5038135;28;20138;-71
2021/07/19 05:14:10;;;;;;;11.95;6.43;;;19.50;99.90;;;;;;5037342;28;20048;-66
2021/07/19 05:16:38;;;;;;;11.57;6.07;;;19.50;99.90;;;;;;5040218;28;20076;-71
2021/07/19 05:19:05;;;;;;;12.70;6.13;;;19.50;99.90;;;;;;5038775;28;20501;-65
2021/07/19 05:21:34;;;;;;;12.50;5.50;;;19.60;99.90;;;;;;5039633;28;20107;-71
2021/07/19 05:24:02;;;;;;;9.85;6.07;;;19.70;99.90;;;;;;5038693;28;20063;-69
2021/07/19 05:26:30;;;;;;;12.35;5.57;;;19.60;99.90;;;;;;5038145;28;20135;-65
2021/07/19 05:28:57;;;;;;;10.90;5.97;;;19.70;99.90;;;;;;5037166;28;20122;-66
2021/07/19 05:31:24;;;;;;;11.00;6.22;;;19.70;99.90;;;;;;5038603;28;20582;-66
2021/07/19 05:33:51;;;;;;;13.40;6.30;;;19.80;99.90;;;;;;5039033;28;20108;-71
2021/07/19 05:36:19;;;;;;;13.13;5.90;;;20.00;99.90;;;;;;5036924;28;20940;-65
2021/07/19 05:38:46;;;;;;;9.02;5.80;;;20.00;99.90;;;;;;5037205;28;20048;-67
2021/07/19 05:41:15;;;;;;;10.68;5.85;;;20.00;99.90;;;;;;5036949;28;20544;-70
2021/07/19 05:43:42;;;;;;;10.93;5.65;;;19.90;99.90;;;;;;5037235;28;20088;-68
2021/07/19 05:46:11;;;;;;;12.80;5.95;;;20.00;99.90;;;;;;5037815;28;20106;-69
2021/07/19 05:48:38;;;;;;;8.65;5.40;;;20.00;99.90;;;;;;5037446;28;20049;-70
2021/07/19 05:51:05;;;;;;;11.02;5.95;;;20.10;99.90;;;;;;5040706;28;20080;-65
2021/07/19 05:53:32;;;;;;;9.50;6.20;;;20.20;99.90;;;;;;5039512;28;20153;-65
2021/07/19 05:55:59;;;;;;;9.75;5.78;;;20.10;99.90;;;;;;5040088;28;20098;-66
2021/07/19 05:58:27;;;;;;;14.40;6.20;;;20.10;99.90;;;;;;5040190;28;20165;-68
2021/07/19 06:00:54;;;;;;;8.43;5.43;;;20.20;99.90;;;;;;5041804;28;20080;-69
2021/07/19 06:03:22;;;;;;;10.10;5.97;;;20.20;99.90;;;;;;5040474;28;20130;-66
2021/07/19 06:05:49;;;;;;;13.10;6.97;;;20.20;99.90;;;;;;5042501;28;20056;-68
2021/07/19 06:08:16;;;;;;;9.98;5.88;;;20.10;99.90;;;;;;5040309;28;20098;-65
2021/07/19 06:10:43;;;;;;;11.90;6.20;;;20.10;99.90;;;;;;5041735;28;20083;-71
2021/07/19 06:13:11;;;;;;;11.35;6.03;;;20.20;99.90;;;;;;5040437;28;20084;-65
2021/07/19 06:15:40;;;;;;;13.73;5.80;;;20.30;99.90;;;;;;5038874;28;20052;-69
2021/07/19 06:18:07;;;;;;;12.90;6.30;;;20.40;99.90;;;;;;5041137;28;20056;-65
2021/07/19 06:20:34;;;;;;;15.43;6.60;;;20.50;99.90;;;;;;5033162;28;20141;-68
2021/07/19 06:23:02;;;;;;;12.30;6.97;;;20.40;99.90;;;;;;5035778;28;20076;-65
2021/07/19 06:25:31;;;;;;;12.90;6.15;;;20.40;99.90;;;;;;5040993;28;20488;-67
2021/07/19 06:27:58;;;;;;;13.50;6.22;;;20.50;99.90;;;;;;5040825;28;20084;-67
2021/07/19 06:30:25;;;;;;;10.85;6.05;;;20.60;99.90;;;;;;5039938;28;20121;-66
2021/07/19 06:32:53;;;;;;;10.38;6.30;;;20.50;99.90;;;;;;5041969;28;20084;-66
2021/07/19 06:35:21;;;;;;;15.70;6.55;;;20.60;99.90;;;;;;5041450;28;20076;-66
2021/07/19 06:37:48;;;;;;;11.98;6.18;;;20.70;99.90;;;;;;5040870;28;20083;-65
2021/07/19 06:40:15;;;;;;;9.23;5.68;;;20.70;99.90;;;;;;5040475;28;20127;-70
2021/07/19 06:42:43;;;;;;;11.57;6.03;;;20.80;99.90;;;;;;5041182;28;20083;-66
2021/07/19 06:45:12;;;;;;;12.35;6.43;;;20.90;99.90;;;;;;5040856;28;20143;-66
2021/07/19 06:47:39;;;;;;;11.82;6.07;;;20.90;99.90;;;;;;5039581;28;20052;-66
2021/07/19 06:50:10;;;;;;;13.60;6.43;;;21.00;99.90;;;;;;5039849;28;20515;-65
2021/07/19 06:52:37;;;;;;;14.20;5.90;;;21.00;99.90;;;;;;5041085;28;20485;-66
2021/07/19 06:55:07;;;;;;;15.00;6.60;;;21.20;99.90;;;;;;5040023;28;20048;-69
2021/07/19 06:57:38;;;;;;;11.90;5.82;;;21.20;99.90;;;;;;5039454;28;20114;-69
2021/07/19 07:00:07;;;;;;;11.60;5.70;;;21.40;99.90;;;;;;5040823;28;20133;-65
2021/07/19 07:02:34;;;;;;;13.23;7.13;;;21.60;99.90;;;;;;5040651;28;20596;-65
2021/07/19 07:05:01;;;;;;;9.85;5.82;;;21.90;99.90;;;;;;5038849;28;20566;-70
2021/07/19 07:07:29;;;;;;;9.90;5.35;;;22.00;99.90;;;;;;5033646;28;20433;-63
2021/07/19 07:09:56;;;;;;;11.88;5.53;;;22.10;99.90;;;;;;5037917;28;20505;-62
2021/07/19 07:12:24;;;;;;;11.73;5.35;;;22.20;99.90;;;;;;5040533;28;20056;-62
2021/07/19 07:14:51;;;;;;;10.02;5.60;;;22.20;99.90;;;;;;5041100;28;20139;-62
2021/07/19 07:17:18;;;;;;;9.93;5.15;;;22.30;99.90;;;;;;5041133;28;20049;-63
2021/07/19 07:19:45;;;;;;;12.10;6.63;;;22.60;99.90;;;;;;5035287;28;20041;-63
2021/07/19 07:22:12;;;;;;;11.70;5.55;;;22.60;99.90;;;;;;5033029;28;20051;-63
2021/07/19 07:24:41;;;;;;;9.45;5.13;;;22.60;99.90;;;;;;5031387;28;20040;-63
2021/07/19 07:27:10;;;;;;;14.80;6.00;;;22.70;99.90;;;;;;5030945;28;20051;-62
2021/07/19 07:29:37;;;;;;;11.80;5.43;;;22.90;99.90;;;;;;5029547;28;20052;-63
2021/07/19 07:32:05;;;;;;;11.88;6.28;;;23.20;99.90;;;;;;5029582;28;20055;-63
2021/07/19 07:34:33;;;;;;;11.32;5.63;;;23.30;99.90;;;;;;5030579;28;20594;-63
2021/07/19 07:37:00;;;;;;;7.60;4.75;;;23.60;99.90;;;;;;5033230;28;20130;-64
2021/07/19 07:39:30;;;;;;;9.73;4.93;;;23.70;99.90;;;;;;5037909;28;20730;-62
2021/07/19 07:41:59;;;;;;;11.77;5.15;;;23.80;99.90;;;;;;5039176;28;20568;-61
2021/07/19 07:44:28;;;;;;;7.72;4.55;;;23.80;99.90;;;;;;5036900;28;20041;-63
2021/07/19 07:46:55;;;;;;;11.88;5.05;;;24.00;99.90;;;;;;5037682;28;20087;-63
2021/07/19 07:49:22;;;;;;;10.75;5.10;;;24.10;99.90;;;;;;5035232;28;20052;-62
2021/07/19 07:51:49;;;;;;;8.35;5.03;;;24.10;99.90;;;;;;5038075;28;20052;-63
2021/07/19 07:54:18;;;;;;;12.63;5.70;;;24.10;99.90;;;;;;5037730;28;21520;-62
2021/07/19 07:56:45;;;;;;;8.98;4.50;;;24.00;99.90;;;;;;5037940;28;20543;-64
2021/07/19 07:59:14;;;;;;;12.77;5.30;;;24.00;99.90;;;;;;5035971;28;20052;-63
2021/07/19 08:01:41;;;;;;;11.10;5.75;;;24.10;99.90;;;;;;5037560;28;20125;-63
2021/07/19 08:04:08;;;;;;;9.60;5.25;;;24.30;99.90;;;;;;5037397;28;20078;-64
2021/07/19 08:06:45;;;;;;;12.30;5.22;;;24.40;99.90;;;;;;5038813;28;20052;-71
2021/07/19 08:09:12;;;;;;;;;;;24.70;99.90;;;;;;5036222;28;20055;-64
2021/07/19 08:11:43;;;;;;;10.32;4.68;;;24.80;99.90;;;;;;5034675;28;19925;-68
2021/07/19 08:14:10;;;;;;;12.10;5.30;;;24.70;99.90;;;;;;5033772;28;20799;-68
2021/07/19 08:16:39;;;;;;;11.10;5.70;;;24.80;99.90;;;;;;5037714;28;20048;-66
2021/07/19 08:19:07;;;;;;;12.23;5.60;;;24.90;99.90;;;;;;5036434;28;20481;-65
2021/07/19 08:21:34;;;;;;;10.77;6.03;;;25.00;99.90;;;;;;5038048;28;20052;-69
2021/07/19 08:24:02;;;;;;;13.15;5.38;;;24.90;99.90;;;;;;5043404;28;20057;-69
2021/07/19 08:26:29;;;;;;;10.35;5.75;;;24.70;99.90;;;;;;5044449;28;20057;-66
2021/07/19 08:28:56;;;;;;;11.07;5.57;;;24.80;99.90;;;;;;5045997;28;20904;-66
2021/07/19 08:31:24;;;;;;;10.00;5.75;;;24.90;99.90;;;;;;5044771;28;20044;-67
2021/07/19 08:33:53;;;;;;;17.42;6.35;;;24.60;99.90;;;;;;5045127;28;21667;-70
2021/07/19 08:36:20;;;;;;;14.55;5.50;;;24.90;99.90;;;;;;5044365;28;20416;-69
2021/07/19 08:38:48;;;;;;;10.55;5.55;;;25.30;99.90;;;;;;5044544;28;20048;-66
2021/07/19 08:41:15;;;;;;;11.00;5.35;;;25.60;99.90;;;;;;5044787;28;20048;-71
2021/07/19 08:43:43;;;;;;;13.13;6.00;;;25.90;99.90;;;;;;5043933;28;20056;-67
2021/07/19 08:46:11;;;;;;;8.77;5.70;;;26.30;99.90;;;;;;5045837;28;21046;-72
2021/07/19 08:48:39;;;;;;;13.15;6.22;;;26.70;99.90;;;;;;5044961;28;20059;-66
2021/07/19 08:51:08;;;;;;;11.02;5.43;;;27.10;99.90;;;;;;5045611;28;20079;-71
2021/07/19 08:53:37;;;;;;;11.82;6.60;;;27.50;99.90;;;;;;5044925;28;20071;-68
2021/07/19 08:56:07;;;;;;;10.85;5.93;;;27.90;99.90;;;;;;5044561;28;20127;-71
2021/07/19 08:58:35;;;;;;;10.27;5.90;;;28.20;99.90;;;;;;5044555;28;20048;-69
2021/07/19 09:01:03;;;;;;;11.70;5.15;;;28.20;99.90;;;;;;5038240;28;20056;-67
2021/07/19 09:03:30;;;;;;;13.43;5.70;;;28.80;99.90;;;;;;5038171;28;20041;-67
2021/07/19 09:05:57;;;;;;;12.18;5.85;;;28.70;99.90;;;;;;5038301;28;20075;-67
2021/07/19 09:08:26;;;;;;;12.43;5.85;;;29.00;99.90;;;;;;5036189;28;20545;-66
2021/07/19 09:10:54;;;;;;;12.20;6.18;;;29.60;99.90;;;;;;5039245;28;20048;-70
2021/07/19 09:13:22;;;;;;;12.38;5.82;;;30.00;99.90;;;;;;5036938;28;20405;-67
2021/07/19 09:15:58;;;;;;;13.95;5.88;;;30.60;99.90;;;;;;5040256;28;20060;-73
2021/07/19 09:18:26;;;;;;;10.53;5.83;;;31.00;99.90;;;;;;5038052;28;20492;-72
2021/07/19 09:20:53;;;;;;;13.27;5.75;;;31.50;99.90;;;;;;5041110;28;20060;-68
2021/07/19 09:23:30;;;;;;;10.93;6.07;;;31.80;99.90;;;;;;5043256;28;20044;-72
2021/07/19 09:25:58;;;;;;;10.60;5.22;;;32.00;99.90;;;;;;5047456;28;21197;-68
2021/07/19 09:28:30;;;;;;;12.10;5.60;;;32.00;99.90;;;;;;5044283;28;20056;-69
2021/07/19 09:31:05;;;;;;;10.40;6.07;;;32.60;99.90;;;;;;5049030;28;20048;-71
2021/07/19 09:33:35;;;;;;;10.45;5.32;;;32.80;99.90;;;;;;5048874;28;20071;-68
2021/07/19 09:36:03;;;;;;;8.98;5.38;;;33.00;99.90;;;;;;5049376;28;20056;-70
2021/07/19 09:38:32;;;;;;;10.50;5.43;;;33.70;99.90;;;;;;5048693;28;20063;-67
2021/07/19 09:41:01;;;;;;;8.82;5.80;;;33.50;99.90;;;;;;5048350;28;20076;-68
2021/07/19 09:43:31;;;;;;;9.82;5.78;;;31.50;99.90;;;;;;5048109;28;20770;-68
2021/07/19 09:46:00;;;;;;;10.55;5.13;;;31.40;99.90;;;;;;5049257;28;20052;-68
2021/07/19 09:48:27;;;;;;;9.20;5.00;;;31.00;99.90;;;;;;5047305;28;20040;-65
2021/07/19 09:50:55;;;;;;;11.23;5.13;;;31.60;99.90;;;;;;5049130;28;20049;-65
2021/07/19 09:53:33;;;;;;;9.07;5.15;;;32.20;99.90;;;;;;5047243;28;20384;-65
2021/07/19 09:56:13;;;;;;;6.40;4.55;;;32.70;99.90;;;;;;5049742;28;20088;-66
2021/07/19 09:58:40;;;;;;;11.35;5.65;;;32.30;99.90;;;;;;5048102;28;20064;-65
2021/07/19 10:01:07;;;;;;;12.52;5.57;;;32.30;99.90;;;;;;5048155;28;20052;-65
2021/07/19 10:03:34;;;;;;;14.85;5.05;;;32.30;99.90;;;;;;5048418;28;20106;-65
2021/07/19 10:06:05;;;;;;;10.45;5.07;;;32.50;99.90;;;;;;5048574;28;20048;-66
2021/07/19 10:08:34;;;;;;;9.27;4.80;;;32.50;99.90;;;;;;5048140;28;20048;-64
2021/07/19 10:11:02;;;;;;;10.65;5.13;;;33.00;99.90;;;;;;5048246;28;20052;-65
2021/07/19 10:13:33;;;;;;;9.43;5.15;;;32.90;99.90;;;;;;5045805;28;21224;-66
2021/07/19 10:16:02;;;;;;;7.93;4.88;;;33.80;99.90;;;;;;5047791;28;20126;-65
2021/07/19 10:18:30;;;;;;;10.90;5.35;;;34.00;99.90;;;;;;5045092;28;20052;-65
2021/07/19 10:20:57;;;;;;;9.65;5.20;;;34.20;99.90;;;;;;5047410;28;20088;-65
2021/07/19 10:23:25;;;;;;;9.90;4.63;;;33.70;99.90;;;;;;5046000;28;20084;-65
2021/07/19 10:25:53;;;;;;;10.82;4.90;;;32.80;99.90;;;;;;5047211;28;20048;-65
2021/07/19 10:28:20;;;;;;;12.43;5.78;;;31.90;99.90;;;;;;5046993;28;20080;-65
2021/07/19 10:30:48;;;;;;;8.13;4.47;;;32.00;99.90;;;;;;5046316;28;20048;-65
2021/07/19 10:33:15;;;;;;;11.07;5.25;;;32.50;99.90;;;;;;5047470;28;20048;-65
2021/07/19 10:35:43;;;;;;;10.32;4.80;;;33.20;99.90;;;;;;5046137;28;20102;-65
2021/07/19 10:38:15;;;;;;;8.73;4.45;;;32.90;99.90;;;;;;5046769;28;20048;-65
2021/07/19 10:40:45;;;;;;;9.63;5.75;;;32.90;99.90;;;;;;5046472;28;20083;-64
2021/07/19 10:43:16;;;;;;;8.25;5.00;;;33.40;99.90;;;;;;5045765;28;20140;-65
2021/07/19 10:45:45;;;;;;;6.63;3.97;;;33.60;99.90;;;;;;5046528;28;20094;-66
2021/07/19 10:48:23;;;;;;;7.72;5.00;;;32.70;99.90;;;;;;5045681;28;20052;-66
2021/07/19 10:50:51;;;;;;;9.80;4.95;;;33.20;99.90;;;;;;5047244;28;20052;-65
2021/07/19 10:53:20;;;;;;;12.18;4.93;;;33.10;99.90;;;;;;5046554;28;20045;-64
2021/07/19 10:55:59;;;;;;;13.52;4.85;;;32.60;99.90;;;;;;5046748;28;20151;-65
2021/07/19 10:58:37;;;;;;;9.82;5.03;;;32.20;99.90;;;;;;5044614;28;20052;-65
2021/07/19 11:01:05;;;;;;;9.70;4.55;;;31.60;99.90;;;;;;5045758;28;20761;-64
2021/07/19 11:03:41;;;;;;;8.10;4.35;;;31.10;99.90;;;;;;5045252;28;20542;-65
2021/07/19 11:06:10;;;;;;;6.88;4.30;;;30.70;99.90;;;;;;5047772;28;20501;-65
2021/07/19 11:08:48;;;;;;;10.65;4.53;;;31.00;99.90;;;;;;5046116;28;20044;-65
2021/07/19 11:11:26;;;;;;;9.90;4.60;;;31.10;99.90;;;;;;5041649;28;20053;-65
2021/07/19 11:13:57;;;;;;;10.50;4.63;;;31.90;99.90;;;;;;5045106;28;20055;-66
2021/07/19 11:16:25;;;;;;;10.52;4.80;;;32.50;99.90;;;;;;5045388;28;20048;-65
2021/07/19 11:18:56;;;;;;;9.05;4.65;;;32.10;99.90;;;;;;5045588;28;20048;-66
2021/07/19 11:21:26;;;;;;;9.05;4.82;;;31.60;99.90;;;;;;5045703;28;20517;-65
2021/07/19 11:23:53;;;;;;;8.68;4.97;;;31.00;99.90;;;;;;5043050;28;20055;-65
2021/07/19 11:26:23;;;;;;;10.23;4.45;;;30.50;99.90;;;;;;5041266;28;20136;-65
2021/07/19 11:28:55;;;;;;;13.73;4.78;;;30.70;99.90;;;;;;5046732;28;20104;-64
2021/07/19 11:31:28;;;;;;;9.00;4.78;;;31.40;99.90;;;;;;5046199;28;20130;-64
2021/07/19 11:34:00;;;;;;;11.15;4.80;;;32.00;99.90;;;;;;5043910;28;20129;-65
2021/07/19 11:36:29;;;;;;;10.73;4.45;;;32.60;99.90;;;;;;5045548;28;20052;-65
2021/07/19 11:38:57;;;;;;;10.27;4.57;;;33.30;99.90;;;;;;5045023;28;20040;-66
2021/07/19 11:41:26;;;;;;;12.88;5.20;;;33.60;99.90;;;;;;5047705;28;20554;-66
2021/07/19 11:43:56;;;;;;;7.18;4.20;;;33.50;99.90;;;;;;5046685;28;20048;-65
2021/07/19 11:46:29;;;;;;;9.70;4.55;;;34.30;99.90;;;;;;5043911;28;20076;-66
2021/07/19 11:49:01;;;;;;;9.57;4.50;;;34.10;99.90;;;;;;5040510;28;20114;-66
2021/07/19 11:51:29;;;;;;;9.63;4.38;;;34.00;99.90;;;;;;5045212;28;20520;-67
2021/07/19 11:53:58;;;;;;;12.70;4.38;;;34.60;99.90;;;;;;5038004;28;20063;-65
2021/07/19 11:56:27;;;;;;;7.70;3.97;;;34.70;99.20;;;;;;5037758;28;20080;-66
2021/07/19 11:58:55;;;;;;;9.00;3.72;;;33.70;99.40;;;;;;5039046;28;20177;-66
2021/07/19 12:01:29;;;;;;;10.23;4.53;;;32.90;99.90;;;;;;5036052;28;20071;-66
2021/07/19 12:03:57;;;;;;;9.80;4.40;;;32.30;99.90;;;;;;5036887;28;20133;-66
2021/07/19 12:06:25;;;;;;;7.60;3.97;;;32.20;99.90;;;;;;5037088;28;20084;-66
2021/07/19 12:08:54;;;;;;;10.90;4.78;;;33.00;99.90;;;;;;5037011;28;20141;-66
2021/07/19 12:11:22;;;;;;;11.02;4.25;;;33.50;99.80;;;;;;5037087;28;20242;-66
2021/07/19 12:13:49;;;;;;;8.50;5.07;;;34.00;98.70;;;;;;5042232;28;20118;-66
2021/07/19 12:16:17;;;;;;;8.43;4.30;;;34.20;98.80;;;;;;5040513;28;20514;-66
2021/07/19 12:18:49;;;;;;;8.93;4.40;;;34.00;99.10;;;;;;5042934;28;20079;-65
2021/07/19 12:21:18;;;;;;;8.45;4.75;;;32.90;98.50;;;;;;5044026;28;20606;-65
2021/07/19 12:23:46;;;;;;;9.73;4.63;;;32.10;99.40;;;;;;5043818;28;20505;-65
2021/07/19 12:26:16;;;;;;;9.93;5.18;;;32.00;99.70;;;;;;5044150;28;20076;-65
2021/07/19 12:28:57;;;;;;;12.57;4.93;;;31.70;99.90;;;;;;5035481;28;20088;-65
2021/07/19 12:31:29;;;;;;;9.10;5.05;;;32.70;99.80;;;;;;5039767;28;20044;-65
2021/07/19 12:34:00;;;;;;;10.93;5.05;;;32.30;99.20;;;;;;5039482;28;20075;-64
2021/07/19 12:36:27;;;;;;;8.13;4.13;;;32.10;99.70;;;;;;5037765;28;20131;-65
2021/07/19 12:38:54;;;;;;;10.43;4.53;;;31.50;99.90;;;;;;5035167;28;20075;-66
2021/07/19 12:41:22;;;;;;;13.30;4.75;;;31.50;99.90;;;;;;5035531;28;20166;-65
2021/07/19 12:43:49;;;;;;;7.68;4.30;;;31.30;99.90;;;;;;5036086;28;20501;-66
2021/07/19 12:46:16;;;;;;;9.00;5.03;;;32.10;99.90;;;;;;5035782;28;20529;-66
2021/07/19 12:48:48;;;;;;;9.13;4.60;;;32.90;99.40;;;;;;5036111;28;20063;-66